Date,TemperatureHighF,TemperatureAvgF,TemperatureLowF,DewpointHighF,DewpointAvgF,DewpointLowF,HumidityHigh,HumidityAvg,HumidityLow,PressureMaxIn,PressureMinIn,WindSpeedMaxMPH,WindSpeedAvgMPH,GustSpeedMaxMPH,PrecipitationSumIn
2013-1-1,25.9,16.7,4.1,4.2,-2.5,-5.0,84,44,26,29.72,29.60,25,10,25,0.02
2013-1-2,27.5,16.7,7.3,-1.1,-3.9,-6.6,57,40,24,29.82,29.71,13,5,13,0.00
2013-1-3,46.0,20.3,3.6,46.0,3.3,-16.0,62,37,12,29.83,29.76,7,2,7,0.00
2013-1-4,54.3,27.3,16.2,16.4,4.5,-2.3,57,41,11,29.82,29.70,7,2,7,0.00
2013-1-5,49.1,26.5,12.0,8.9,-6.1,-25.3,64,31,10,29.88,29.71,17,4,18,0.00
2013-1-6,54.1,33.9,13.6,3.2,-13.6,-21.3,41,18,10,29.88,29.66,17,4,18,0.00
2013-1-7,51.3,37.9,30.7,4.8,-15.8,-22.7,34,13,10,29.70,29.57,17,6,20,0.00
2013-1-8,41.5,33.6,29.1,16.3,11.2,-15.3,51,41,14,29.89,29.52,30,9,30,0.00
2013-1-9,60.4,41.7,31.3,13.9,3.3,-12.5,44,25,10,29.92,29.71,16,5,21,0.00
2013-1-10,47.7,33.5,25.9,47.7,7.9,-10.9,51,33,10,29.71,29.27,11,3,11,0.00
2013-1-11,32.4,20.5,8.8,20.7,2.2,-12.5,78,46,29,29.40,29.11,27,9,29,0.00
2013-1-12,21.6,8.0,-2.7,-1.2,-10.4,-17.5,81,47,20,29.50,29.40,17,5,19,0.00
2013-1-13,12.2,-0.2,-7.2,1.2,-6.4,-12.1,80,74,55,29.57,29.48,13,3,14,0.00
2013-1-14,18.3,1.7,-10.8,0.8,-11.1,-15.5,79,58,28,29.62,29.51,22,4,23,0.00
2013-1-15,32.0,21.9,5.4,15.7,1.8,-20.8,54,42,25,29.76,29.56,27,9,27,0.07
2013-1-16,49.1,32.8,19.9,17.5,14.5,9.9,73,50,26,29.97,29.74,21,6,26,0.00
2013-1-17,57.4,33.0,16.5,18.1,5.8,-10.0,79,41,10,30.03,29.87,13,4,18,0.00
2013-1-18,46.0,37.6,32.5,2.6,-4.4,-13.3,28,20,11,29.88,29.78,29,10,30,0.02
2013-1-19,52.3,38.4,30.4,-0.2,-9.2,-17.1,26,16,10,29.90,29.75,24,8,32,0.00
2013-1-20,47.7,35.7,25.0,9.0,-6.1,-20.8,50,21,10,29.89,29.77,27,6,30,0.02
2013-1-21,45.9,35.9,28.8,6.0,-1.6,-20.5,36,23,10,29.83,29.76,30,10,30,0.00
2013-1-22,52.3,42.6,35.6,-15.7,-21.0,-21.7,12,10,10,29.91,29.72,38,12,42,0.06
2013-1-23,61.2,45.8,35.6,-0.8,-18.2,-21.1,23,11,10,29.90,29.85,24,6,25,0.00
2013-1-24,54.7,43.4,35.4,25.7,2.0,-19.1,55,27,10,29.85,29.72,24,8,34,0.00
2013-1-25,51.8,42.3,36.0,26.4,23.2,18.6,57,48,33,29.85,29.76,21,7,27,0.00
2013-1-26,52.5,41.6,31.6,29.4,22.8,11.0,89,52,24,29.76,29.50,13,4,23,0.00
2013-1-27,50.7,37.6,28.6,29.6,22.1,13.3,95,59,26,29.54,29.46,23,5,29,0.01
2013-1-28,50.2,33.2,20.7,24.5,16.8,11.2,88,53,25,29.49,29.34,30,7,30,0.00
2013-1-29,25.3,16.3,10.6,17.1,-3.0,-11.7,85,44,23,29.53,29.34,19,6,24,0.00
2013-1-30,28.8,21.7,10.9,14.6,4.6,-7.8,65,48,31,29.55,29.39,34,13,36,0.41
2013-1-31,30.4,27.8,26.1,16.7,13.3,10.6,66,55,46,29.70,29.54,36,19,38,0.99
2013-2-23,40.6,26.8,17.8,19.5,8.9,-2.6,89,48,33,29.48,29.33,30,9,30,0.44
2013-2-24,24.8,19.6,8.1,18.9,13.4,4.0,91,78,57,29.67,29.40,10,3,10,0.00
2013-2-25,42.1,25.4,1.6,11.0,2.9,-7.0,85,44,12,29.65,29.49,11,5,11,0.01
2013-2-26,32.4,25.0,18.3,19.6,9.4,3.2,85,52,36,29.70,29.45,23,6,23,0.02
2013-2-27,32.4,22.5,14.9,3.2,-3.7,-12.8,51,33,17,29.80,29.71,22,10,22,0.00
2013-2-28,38.1,25.8,17.4,10.0,2.3,-2.9,52,37,21,29.84,29.75,23,11,23,0.07
2013-3-1,42.4,34.5,26.1,19.0,15.2,0.1,54,46,29,29.94,29.84,25,9,25,0.20
2013-3-2,36.0,35.3,34.2,19.3,18.5,17.8,54,51,49,29.94,29.93,16,8,16,0.00
2013-3-3,53.4,42.3,32.2,29.6,20.1,14.2,90,45,22,29.73,29.47,29,11,29,0.13
2013-3-4,40.8,26.4,18.0,29.6,13.8,-2.9,93,61,32,29.76,29.46,21,6,21,0.07
2013-3-5,53.8,33.8,16.5,53.8,15.0,-13.8,49,21,11,29.79,29.75,15,6,15,0.00
2013-3-6,57.4,44.6,25.2,57.4,5.3,-13.4,34,20,10,29.77,29.58,28,9,29,0.00
2013-3-7,61.3,45.7,30.0,19.1,7.0,-9.1,59,28,10,29.72,29.59,26,8,30,0.02
2013-3-8,53.4,35.7,26.4,26.8,15.6,5.2,90,50,19,29.69,29.43,15,3,17,0.00
2013-3-9,34.2,27.3,20.1,27.9,20.4,6.2,93,76,52,29.70,29.38,14,4,15,0.06
2013-3-10,47.5,32.1,19.6,14.0,6.0,-6.0,57,37,17,29.75,29.67,20,7,20,0.00
2013-3-11,43.2,33.3,24.1,26.2,16.4,9.9,93,53,31,29.75,29.61,36,12,36,0.31
2013-3-12,48.2,32.3,21.0,25.5,20.3,16.9,94,66,33,29.85,29.74,30,7,30,0.08
2013-3-13,39.7,38.9,37.9,20.4,18.7,17.6,50,45,42,29.84,29.82,14,7,17,0.00
2013-3-21,51.1,36.5,27.5,26.5,14.2,-6.4,76,42,19,29.51,29.34,21,8,21,0.04
2013-3-22,37.0,26.2,17.6,21.0,8.9,-1.2,91,54,20,29.54,29.41,18,6,18,0.00
2013-3-23,19.9,13.5,2.3,14.8,9.4,-1.9,90,84,74,29.70,29.51,12,5,12,0.00
2013-3-24,27.0,13.4,-0.2,10.2,0.9,-4.5,87,61,30,29.72,29.62,21,5,21,0.00
2013-3-25,38.8,19.1,2.5,11.4,3.2,-8.5,84,56,13,29.78,29.71,15,5,15,0.00
2013-3-26,51.4,32.9,9.0,26.6,16.6,3.8,80,53,28,29.76,29.62,19,6,19,0.00
2013-3-27,51.6,36.8,27.7,28.8,23.9,18.6,87,64,29,29.73,29.67,16,5,16,0.00
2013-3-28,57.6,40.8,27.5,29.0,22.0,10.2,76,52,15,29.86,29.77,11,4,11,0.00
2013-3-29,59.4,45.2,30.7,33.5,24.6,8.8,78,48,18,29.87,29.79,24,6,28,0.00
2013-3-30,43.3,39.2,36.3,25.2,24.0,22.5,63,55,45,29.83,29.80,17,6,24,0.00
2013-3-31,61.9,42.2,25.3,61.9,22.6,-1.3,94,40,13,29.87,29.72,24,7,24,0.05
2013-4-1,48.7,36.0,24.4,32.7,25.1,15.7,93,68,37,29.83,29.71,14,3,17,0.00
2013-4-2,40.3,32.7,29.7,35.3,30.9,28.6,96,93,78,29.79,29.72,11,1,12,0.12
2013-4-3,57.7,37.9,22.5,37.1,25.2,4.6,97,71,16,29.79,29.75,14,2,17,0.13
2013-4-4,61.0,52.1,38.5,28.8,19.8,13.0,67,31,20,29.87,29.77,21,7,23,0.00
2013-4-5,63.5,46.2,37.4,34.8,22.3,14.5,83,44,18,29.77,29.54,30,6,36,0.11
2013-4-6,57.6,44.3,36.1,30.0,18.7,5.8,68,39,16,29.69,29.63,20,6,26,0.00
2013-4-7,51.8,41.6,34.3,36.6,26.2,16.0,90,58,29,29.65,29.51,21,4,21,0.04
2013-4-8,56.5,40.5,27.3,32.8,25.1,16.5,96,61,25,29.52,29.32,21,5,29,0.01
2013-4-9,27.5,16.0,7.0,26.3,12.0,3.5,95,84,66,29.68,29.46,15,2,16,0.00
2013-4-10,32.7,17.6,-0.2,20.9,9.1,-4.2,86,70,45,29.66,29.52,21,6,23,0.01
2013-4-11,27.3,26.2,25.7,14.3,13.6,13.0,60,59,58,29.52,29.49,14,9,18,0.00
2013-4-19,47.7,33.6,20.3,22.6,15.7,7.9,62,48,31,29.74,29.66,18,9,18,0.00
2013-4-20,52.2,39.5,32.9,29.2,24.0,18.7,76,55,29,29.73,29.61,16,5,16,0.00
2013-4-21,52.9,40.4,32.9,28.7,21.9,18.0,82,49,30,29.77,29.72,13,4,13,0.00
2013-4-22,48.6,28.7,15.6,35.0,23.3,13.0,94,82,39,29.83,29.64,18,4,18,0.09
2013-4-23,38.1,23.8,12.2,21.5,14.3,9.0,90,69,38,29.79,29.70,12,5,12,0.15
2013-4-24,49.1,34.3,21.6,15.8,8.8,3.3,63,37,15,29.87,29.75,21,7,21,0.00
2013-4-25,62.8,49.5,31.8,55.4,6.2,-9.2,64,26,10,29.83,29.67,14,5,17,0.00
2013-4-26,61.7,45.8,31.5,21.7,12.0,-4.7,62,34,10,29.96,29.78,15,4,15,0.00
2013-4-27,36.0,34.0,32.7,20.7,16.7,15.8,59,50,45,29.95,29.91,8,4,8,0.00
2013-4-28,34.0,34.0,34.0,16.3,16.3,16.3,49,49,49,29.91,29.91,4,4,7,0.00
2013-4-29,34.0,34.0,34.0,16.3,16.3,16.3,49,49,49,29.91,29.91,4,4,7,0.00
2013-10-5,51.1,38.3,29.5,14.6,8.4,-0.4,53,31,14,29.93,29.80,28,10,28,0.02
2013-10-6,65.7,52.0,40.5,28.3,22.4,2.5,50,32,20,29.98,29.91,14,7,14,0.00
2013-10-7,75.7,60.1,50.7,75.7,29.5,-1.8,28,14,10,29.95,29.78,15,8,15,0.00
2013-10-8,73.2,57.6,43.9,73.2,21.9,2.5,51,22,10,29.77,29.63,16,6,16,0.00
2013-10-9,62.4,50.8,41.2,39.6,32.3,24.8,85,52,28,29.75,29.67,16,6,16,0.00
2013-10-10,52.3,43.7,36.5,43.3,34.8,26.1,89,72,50,29.72,29.38,22,4,22,0.02
2013-10-11,49.6,43.0,38.5,29.3,25.7,21.4,64,52,42,29.77,29.35,32,7,32,0.78
2013-10-12,57.6,40.0,28.4,36.2,28.0,15.8,95,68,24,29.86,29.77,12,3,18,0.00
2013-10-13,63.0,41.0,30.0,34.7,29.0,20.9,93,70,23,29.86,29.76,11,3,14,0.00
2013-12-12,43.7,40.8,38.1,4.6,-3.9,-12.1,21,15,10,29.79,29.67,18,11,18,0.01
2013-12-13,43.2,34.6,24.4,13.0,6.9,-5.1,52,33,16,29.77,29.57,20,9,20,0.00
2013-12-14,37.8,29.2,23.5,9.2,6.6,2.9,49,39,24,29.85,29.76,17,9,17,0.01